sensor_id;sensor_type;location;lat;lon;timestamp;temperature;humidity
4052;DHT22;2040;50.924;11.604;2023-02-03T00:00:47;2.80;99.90
4052;DHT22;2040;50.924;11.604;2023-02-03T00:03:13;2.90;99.90
4052;DHT22;2040;50.924;11.604;2023-02-03T00:05:39;2.90;99.90
4052;DHT22;2040;50.924;11.604;2023-02-03T00:08:06;3.00;99.90
4052;DHT22;2040;50.924;11.604;2023-02-03T00:10:33;3.00;99.90
4052;DHT22;2040;50.924;11.604;2023-02-03T00:13:00;3.00;99.90
4052;DHT22;2040;50.924;11.604;2023-02-03T00:15:26;3.00;99.90
4052;DHT22;2040;50.924;11.604;2023-02-03T00:17:51;3.10;99.90
4052;DHT22;2040;50.924;11.604;2023-02-03T00:20:17;3.10;99.90
4052;DHT22;2040;50.924;11.604;2023-02-03T00:22:43;3.10;99.90
4052;DHT22;2040;50.924;11.604;2023-02-03T00:25:08;3.10;99.90
4052;DHT22;2040;50.924;11.604;2023-02-03T00:27:34;3.20;99.90
4052;DHT22;2040;50.924;11.604;2023-02-03T00:29:59;3.20;99.90
4052;DHT22;2040;50.924;11.604;2023-02-03T00:32:25;3.30;99.90
4052;DHT22;2040;50.924;11.604;2023-02-03T00:34:50;3.20;99.90
4052;DHT22;2040;50.924;11.604;2023-02-03T00:37:16;3.20;99.90
4052;DHT22;2040;50.924;11.604;2023-02-03T00:39:41;3.30;99.90
4052;DHT22;2040;50.924;11.604;2023-02-03T00:42:07;3.30;99.90
4052;DHT22;2040;50.924;11.604;2023-02-03T00:44:33;3.40;99.90
4052;DHT22;2040;50.924;11.604;2023-02-03T00:46:58;3.50;99.90
4052;DHT22;2040;50.924;11.604;2023-02-03T00:49:24;3.50;99.90
4052;DHT22;2040;50.924;11.604;2023-02-03T00:51:50;3.50;99.90
4052;DHT22;2040;50.924;11.604;2023-02-03T00:54:16;3.60;99.90
4052;DHT22;2040;50.924;11.604;2023-02-03T00:56:41;3.50;99.90
4052;DHT22;2040;50.924;11.604;2023-02-03T00:59:07;3.50;99.90
4052;DHT22;2040;50.924;11.604;2023-02-03T01:01:33;3.60;99.90
4052;DHT22;2040;50.924;11.604;2023-02-03T01:03:59;3.60;99.90
4052;DHT22;2040;50.924;11.604;2023-02-03T01:06:25;3.70;99.90
4052;DHT22;2040;50.924;11.604;2023-02-03T01:08:51;3.60;99.90
4052;DHT22;2040;50.924;11.604;2023-02-03T01:11:19;3.70;99.90
4052;DHT22;2040;50.924;11.604;2023-02-03T01:13:46;3.80;99.90
4052;DHT22;2040;50.924;11.604;2023-02-03T01:16:14;3.80;99.90
4052;DHT22;2040;50.924;11.604;2023-02-03T01:18:40;3.90;99.90
4052;DHT22;2040;50.924;11.604;2023-02-03T01:21:07;3.90;99.90
4052;DHT22;2040;50.924;11.604;2023-02-03T01:23:33;3.90;99.90
4052;DHT22;2040;50.924;11.604;2023-02-03T01:26:02;3.90;99.90
4052;DHT22;2040;50.924;11.604;2023-02-03T01:28:28;4.00;99.90
4052;DHT22;2040;50.924;11.604;2023-02-03T01:30:53;4.00;99.90
4052;DHT22;2040;50.924;11.604;2023-02-03T01:33:19;4.00;99.90
4052;DHT22;2040;50.924;11.604;2023-02-03T01:35:44;4.00;99.90
4052;DHT22;2040;50.924;11.604;2023-02-03T01:38:10;4.10;99.90
4052;DHT22;2040;50.924;11.604;2023-02-03T01:40:42;4.20;99.90
4052;DHT22;2040;50.924;11.604;2023-02-03T01:43:09;4.20;99.90
4052;DHT22;2040;50.924;11.604;2023-02-03T01:45:35;4.30;99.90
4052;DHT22;2040;50.924;11.604;2023-02-03T01:48:00;4.20;99.90
4052;DHT22;2040;50.924;11.604;2023-02-03T01:50:30;4.30;99.90
4052;DHT22;2040;50.924;11.604;2023-02-03T01:53:05;4.20;99.90
4052;DHT22;2040;50.924;11.604;2023-02-03T01:55:39;4.30;99.90
4052;DHT22;2040;50.924;11.604;2023-02-03T01:58:21;4.30;99.90
4052;DHT22;2040;50.924;11.604;2023-02-03T02:00:51;4.30;99.90
4052;DHT22;2040;50.924;11.604;2023-02-03T02:03:23;4.30;99.90
4052;DHT22;2040;50.924;11.604;2023-02-03T02:05:53;4.40;99.90
4052;DHT22;2040;50.924;11.604;2023-02-03T02:08:21;4.30;99.90
4052;DHT22;2040;50.924;11.604;2023-02-03T02:10:48;4.40;99.90
4052;DHT22;2040;50.924;11.604;2023-02-03T02:13:14;4.30;99.90
4052;DHT22;2040;50.924;11.604;2023-02-03T02:16:05;4.40;99.90
4052;DHT22;2040;50.924;11.604;2023-02-03T02:21:21;4.40;99.90
4052;DHT22;2040;50.924;11.604;2023-02-03T02:27:04;4.50;99.90
4052;DHT22;2040;50.924;11.604;2023-02-03T02:29:51;4.50;99.90
4052;DHT22;2040;50.924;11.604;2023-02-03T02:41:18;4.50;99.90
4052;DHT22;2040;50.924;11.604;2023-02-03T02:46:46;4.60;99.90
4052;DHT22;2040;50.924;11.604;2023-02-03T02:49:17;4.70;99.90
4052;DHT22;2040;50.924;11.604;2023-02-03T02:51:45;4.70;99.90
4052;DHT22;2040;50.924;11.604;2023-02-03T02:54:16;4.70;99.90
4052;DHT22;2040;50.924;11.604;2023-02-03T02:56:45;4.70;99.90
4052;DHT22;2040;50.924;11.604;2023-02-03T02:59:13;4.80;99.90
4052;DHT22;2040;50.924;11.604;2023-02-03T03:01:38;4.70;99.90
4052;DHT22;2040;50.924;11.604;2023-02-03T03:04:07;4.80;99.90
4052;DHT22;2040;50.924;11.604;2023-02-03T03:06:42;4.80;99.90
4052;DHT22;2040;50.924;11.604;2023-02-03T03:09:15;4.90;99.90
4052;DHT22;2040;50.924;11.604;2023-02-03T03:11:50;4.90;99.90
4052;DHT22;2040;50.924;11.604;2023-02-03T03:14:19;4.90;99.90
4052;DHT22;2040;50.924;11.604;2023-02-03T03:16:50;4.90;99.90
4052;DHT22;2040;50.924;11.604;2023-02-03T03:19:20;5.00;99.90
4052;DHT22;2040;50.924;11.604;2023-02-03T03:21:51;5.00;99.90
4052;DHT22;2040;50.924;11.604;2023-02-03T03:24:22;5.00;99.90
4052;DHT22;2040;50.924;11.604;2023-02-03T03:26:56;5.00;99.90
4052;DHT22;2040;50.924;11.604;2023-02-03T03:29:30;5.00;99.90
4052;DHT22;2040;50.924;11.604;2023-02-03T03:32:00;5.10;99.90
4052;DHT22;2040;50.924;11.604;2023-02-03T03:34:26;5.10;99.90
4052;DHT22;2040;50.924;11.604;2023-02-03T03:39:55;5.20;99.90
4052;DHT22;2040;50.924;11.604;2023-02-03T03:42:42;5.20;99.90
4052;DHT22;2040;50.924;11.604;2023-02-03T03:47:56;5.30;99.90
4052;DHT22;2040;50.924;11.604;2023-02-03T03:50:30;5.30;99.90
4052;DHT22;2040;50.924;11.604;2023-02-03T03:52:58;5.30;99.90
4052;DHT22;2040;50.924;11.604;2023-02-03T03:55:26;5.30;99.90
4052;DHT22;2040;50.924;11.604;2023-02-03T03:58:00;5.40;99.90
4052;DHT22;2040;50.924;11.604;2023-02-03T04:00:30;5.40;99.90
4052;DHT22;2040;50.924;11.604;2023-02-03T04:03:01;5.30;99.90
4052;DHT22;2040;50.924;11.604;2023-02-03T04:05:29;5.30;99.90
4052;DHT22;2040;50.924;11.604;2023-02-03T04:07:55;5.30;99.90
4052;DHT22;2040;50.924;11.604;2023-02-03T04:10:30;5.40;99.90
4052;DHT22;2040;50.924;11.604;2023-02-03T04:12:56;5.40;99.90
4052;DHT22;2040;50.924;11.604;2023-02-03T04:15:22;5.40;99.90
4052;DHT22;2040;50.924;11.604;2023-02-03T04:17:48;5.40;99.90
4052;DHT22;2040;50.924;11.604;2023-02-03T04:20:14;5.40;99.90
4052;DHT22;2040;50.924;11.604;2023-02-03T04:22:40;5.50;99.90
4052;DHT22;2040;50.924;11.604;2023-02-03T04:25:06;5.50;99.90
4052;DHT22;2040;50.924;11.604;2023-02-03T04:27:33;5.50;99.90
4052;DHT22;2040;50.924;11.604;2023-02-03T04:29:59;5.50;99.90
4052;DHT22;2040;50.924;11.604;2023-02-03T04:32:24;5.60;99.90
4052;DHT22;2040;50.924;11.604;2023-02-03T04:34:50;5.60;99.90
4052;DHT22;2040;50.924;11.604;2023-02-03T04:37:15;5.60;99.90
4052;DHT22;2040;50.924;11.604;2023-02-03T04:39:41;5.60;99.90
4052;DHT22;2040;50.924;11.604;2023-02-03T04:42:07;5.60;99.90
4052;DHT22;2040;50.924;11.604;2023-02-03T04:44:32;5.60;99.90
4052;DHT22;2040;50.924;11.604;2023-02-03T04:46:58;5.60;99.90
4052;DHT22;2040;50.924;11.604;2023-02-03T04:49:23;5.60;99.90
4052;DHT22;2040;50.924;11.604;2023-02-03T04:51:49;5.60;99.90
4052;DHT22;2040;50.924;11.604;2023-02-03T04:54:14;5.60;99.90
4052;DHT22;2040;50.924;11.604;2023-02-03T04:56:40;5.60;99.90
4052;DHT22;2040;50.924;11.604;2023-02-03T04:59:06;5.60;99.90
4052;DHT22;2040;50.924;11.604;2023-02-03T05:01:31;5.60;99.90
4052;DHT22;2040;50.924;11.604;2023-02-03T05:03:57;5.60;99.90
4052;DHT22;2040;50.924;11.604;2023-02-03T05:06:24;5.50;99.90
4052;DHT22;2040;50.924;11.604;2023-02-03T05:08:51;5.50;99.90
4052;DHT22;2040;50.924;11.604;2023-02-03T05:11:16;5.50;99.90
4052;DHT22;2040;50.924;11.604;2023-02-03T05:13:42;5.50;99.90
4052;DHT22;2040;50.924;11.604;2023-02-03T05:16:07;5.50;99.90
4052;DHT22;2040;50.924;11.604;2023-02-03T05:18:33;5.50;99.90
4052;DHT22;2040;50.924;11.604;2023-02-03T05:20:58;5.50;99.90
4052;DHT22;2040;50.924;11.604;2023-02-03T05:23:24;5.50;99.90
4052;DHT22;2040;50.924;11.604;2023-02-03T05:25:50;5.60;99.90
4052;DHT22;2040;50.924;11.604;2023-02-03T05:28:15;5.60;99.90
4052;DHT22;2040;50.924;11.604;2023-02-03T05:30:41;5.60;99.90
4052;DHT22;2040;50.924;11.604;2023-02-03T05:33:06;5.60;99.90
4052;DHT22;2040;50.924;11.604;2023-02-03T05:35:32;5.70;99.90
4052;DHT22;2040;50.924;11.604;2023-02-03T05:37:58;5.70;99.90
4052;DHT22;2040;50.924;11.604;2023-02-03T05:40:24;5.60;99.90
4052;DHT22;2040;50.924;11.604;2023-02-03T05:43:08;5.60;99.90
4052;DHT22;2040;50.924;11.604;2023-02-03T05:45:34;5.70;99.90
4052;DHT22;2040;50.924;11.604;2023-02-03T05:47:59;5.70;99.90
4052;DHT22;2040;50.924;11.604;2023-02-03T05:50:27;5.80;99.90
4052;DHT22;2040;50.924;11.604;2023-02-03T05:53:03;5.80;99.90
4052;DHT22;2040;50.924;11.604;2023-02-03T05:55:30;5.70;99.90
4052;DHT22;2040;50.924;11.604;2023-02-03T05:57:56;5.70;99.90
4052;DHT22;2040;50.924;11.604;2023-02-03T06:00:22;5.70;99.90
4052;DHT22;2040;50.924;11.604;2023-02-03T06:02:56;5.70;99.90
4052;DHT22;2040;50.924;11.604;2023-02-03T06:05:23;5.70;99.90
4052;DHT22;2040;50.924;11.604;2023-02-03T06:07:49;5.80;99.90
4052;DHT22;2040;50.924;11.604;2023-02-03T06:10:15;5.80;99.90
4052;DHT22;2040;50.924;11.604;2023-02-03T06:12:41;5.80;99.90
4052;DHT22;2040;50.924;11.604;2023-02-03T06:15:07;5.80;99.90
4052;DHT22;2040;50.924;11.604;2023-02-03T06:17:33;5.80;99.90
4052;DHT22;2040;50.924;11.604;2023-02-03T06:20:02;5.80;99.90
4052;DHT22;2040;50.924;11.604;2023-02-03T06:22:28;5.80;99.90
4052;DHT22;2040;50.924;11.604;2023-02-03T06:24:53;5.90;99.90
4052;DHT22;2040;50.924;11.604;2023-02-03T06:27:19;5.90;99.90
4052;DHT22;2040;50.924;11.604;2023-02-03T06:29:45;5.90;99.90
4052;DHT22;2040;50.924;11.604;2023-02-03T06:32:10;5.90;99.90
4052;DHT22;2040;50.924;11.604;2023-02-03T06:34:36;5.80;99.90
4052;DHT22;2040;50.924;11.604;2023-02-03T06:37:01;5.90;99.90
4052;DHT22;2040;50.924;11.604;2023-02-03T06:39:27;5.90;99.90
4052;DHT22;2040;50.924;11.604;2023-02-03T06:41:53;5.90;99.90
4052;DHT22;2040;50.924;11.604;2023-02-03T06:44:20;5.90;99.90
4052;DHT22;2040;50.924;11.604;2023-02-03T06:46:46;5.90;99.90
4052;DHT22;2040;50.924;11.604;2023-02-03T06:49:12;5.90;99.90
4052;DHT22;2040;50.924;11.604;2023-02-03T06:51:38;6.00;99.90
4052;DHT22;2040;50.924;11.604;2023-02-03T06:54:03;6.00;99.90
4052;DHT22;2040;50.924;11.604;2023-02-03T06:56:29;6.00;99.90
4052;DHT22;2040;50.924;11.604;2023-02-03T06:58:55;6.00;99.90
4052;DHT22;2040;50.924;11.604;2023-02-03T07:01:22;6.00;99.90
4052;DHT22;2040;50.924;11.604;2023-02-03T07:03:48;6.10;99.90
4052;DHT22;2040;50.924;11.604;2023-02-03T07:06:13;6.10;99.90
4052;DHT22;2040;50.924;11.604;2023-02-03T07:08:39;6.20;99.90
4052;DHT22;2040;50.924;11.604;2023-02-03T07:11:06;6.20;99.90
4052;DHT22;2040;50.924;11.604;2023-02-03T07:13:31;6.30;99.90
4052;DHT22;2040;50.924;11.604;2023-02-03T07:15:57;6.30;99.90
4052;DHT22;2040;50.924;11.604;2023-02-03T07:18:23;6.30;99.90
4052;DHT22;2040;50.924;11.604;2023-02-03T07:20:50;6.30;99.90
4052;DHT22;2040;50.924;11.604;2023-02-03T07:23:16;6.30;99.90
4052;DHT22;2040;50.924;11.604;2023-02-03T07:25:41;6.30;99.90
4052;DHT22;2040;50.924;11.604;2023-02-03T07:28:07;6.30;99.90
4052;DHT22;2040;50.924;11.604;2023-02-03T07:30:32;6.30;99.90
4052;DHT22;2040;50.924;11.604;2023-02-03T07:32:58;6.40;99.90
4052;DHT22;2040;50.924;11.604;2023-02-03T07:35:24;6.40;99.90
4052;DHT22;2040;50.924;11.604;2023-02-03T07:37:50;6.40;99.90
4052;DHT22;2040;50.924;11.604;2023-02-03T07:40:16;6.50;99.90
4052;DHT22;2040;50.924;11.604;2023-02-03T07:42:46;6.50;99.90
4052;DHT22;2040;50.924;11.604;2023-02-03T07:45:13;6.40;99.90
4052;DHT22;2040;50.924;11.604;2023-02-03T07:47:41;6.40;99.90
4052;DHT22;2040;50.924;11.604;2023-02-03T07:50:07;6.40;99.90
4052;DHT22;2040;50.924;11.604;2023-02-03T07:52:33;6.40;99.90
4052;DHT22;2040;50.924;11.604;2023-02-03T07:54:59;6.40;99.90
4052;DHT22;2040;50.924;11.604;2023-02-03T07:57:24;6.50;99.90
4052;DHT22;2040;50.924;11.604;2023-02-03T07:59:50;6.50;99.90
4052;DHT22;2040;50.924;11.604;2023-02-03T08:02:15;6.50;99.90
4052;DHT22;2040;50.924;11.604;2023-02-03T08:04:41;6.50;99.90
4052;DHT22;2040;50.924;11.604;2023-02-03T08:07:06;6.50;99.90
4052;DHT22;2040;50.924;11.604;2023-02-03T08:09:32;6.50;99.90
4052;DHT22;2040;50.924;11.604;2023-02-03T08:11:57;6.50;99.90
4052;DHT22;2040;50.924;11.604;2023-02-03T08:14:23;6.50;99.90
4052;DHT22;2040;50.924;11.604;2023-02-03T08:16:48;6.50;99.90
4052;DHT22;2040;50.924;11.604;2023-02-03T08:19:14;6.60;99.90
4052;DHT22;2040;50.924;11.604;2023-02-03T08:21:39;6.60;99.90
4052;DHT22;2040;50.924;11.604;2023-02-03T08:24:05;6.70;99.90
4052;DHT22;2040;50.924;11.604;2023-02-03T08:26:30;6.80;99.90
4052;DHT22;2040;50.924;11.604;2023-02-03T08:28:56;6.80;99.90
4052;DHT22;2040;50.924;11.604;2023-02-03T08:31:22;6.80;99.90
4052;DHT22;2040;50.924;11.604;2023-02-03T08:33:47;6.80;99.90
4052;DHT22;2040;50.924;11.604;2023-02-03T08:36:13;7.00;99.90
4052;DHT22;2040;50.924;11.604;2023-02-03T08:38:39;7.00;99.90
4052;DHT22;2040;50.924;11.604;2023-02-03T08:41:14;7.00;99.90
4052;DHT22;2040;50.924;11.604;2023-02-03T08:43:40;7.10;99.90
4052;DHT22;2040;50.924;11.604;2023-02-03T08:46:08;7.00;99.90
4052;DHT22;2040;50.924;11.604;2023-02-03T08:48:34;7.00;99.90
4052;DHT22;2040;50.924;11.604;2023-02-03T08:50:59;7.00;99.90
4052;DHT22;2040;50.924;11.604;2023-02-03T08:53:25;7.00;99.90
4052;DHT22;2040;50.924;11.604;2023-02-03T08:55:51;7.00;99.90
4052;DHT22;2040;50.924;11.604;2023-02-03T08:58:17;7.00;99.90
4052;DHT22;2040;50.924;11.604;2023-02-03T09:00:43;6.90;99.90
4052;DHT22;2040;50.924;11.604;2023-02-03T09:03:09;6.90;99.90
4052;DHT22;2040;50.924;11.604;2023-02-03T09:05:35;6.90;99.90
4052;DHT22;2040;50.924;11.604;2023-02-03T09:08:01;7.00;99.90
4052;DHT22;2040;50.924;11.604;2023-02-03T09:10:26;6.90;99.90
4052;DHT22;2040;50.924;11.604;2023-02-03T09:12:52;6.90;99.90
4052;DHT22;2040;50.924;11.604;2023-02-03T09:15:17;6.90;99.90
4052;DHT22;2040;50.924;11.604;2023-02-03T09:17:43;7.00;99.90
4052;DHT22;2040;50.924;11.604;2023-02-03T09:20:09;7.00;99.90
4052;DHT22;2040;50.924;11.604;2023-02-03T09:22:37;7.00;99.90
4052;DHT22;2040;50.924;11.604;2023-02-03T09:25:03;7.00;99.90
4052;DHT22;2040;50.924;11.604;2023-02-03T09:27:29;7.10;99.90
4052;DHT22;2040;50.924;11.604;2023-02-03T09:29:54;7.10;99.90
4052;DHT22;2040;50.924;11.604;2023-02-03T09:32:20;7.20;99.90
4052;DHT22;2040;50.924;11.604;2023-02-03T09:34:46;7.20;99.90
4052;DHT22;2040;50.924;11.604;2023-02-03T09:37:11;7.20;99.90
4052;DHT22;2040;50.924;11.604;2023-02-03T09:39:37;7.30;99.90
4052;DHT22;2040;50.924;11.604;2023-02-03T09:47:19;7.40;99.90
4052;DHT22;2040;50.924;11.604;2023-02-03T09:49:49;7.40;99.90
4052;DHT22;2040;50.924;11.604;2023-02-03T09:52:20;7.40;99.90
4052;DHT22;2040;50.924;11.604;2023-02-03T09:57:57;7.50;99.90
4052;DHT22;2040;50.924;11.604;2023-02-03T10:00:29;7.50;99.90
4052;DHT22;2040;50.924;11.604;2023-02-03T10:03:10;7.60;99.90
4052;DHT22;2040;50.924;11.604;2023-02-03T10:05:51;7.60;99.90
4052;DHT22;2040;50.924;11.604;2023-02-03T10:08:41;7.60;99.90
4052;DHT22;2040;50.924;11.604;2023-02-03T10:11:28;7.70;99.90
4052;DHT22;2040;50.924;11.604;2023-02-03T10:19:44;7.70;99.90
4052;DHT22;2040;50.924;11.604;2023-02-03T10:22:20;7.80;99.90
4052;DHT22;2040;50.924;11.604;2023-02-03T10:25:04;7.80;99.90
4052;DHT22;2040;50.924;11.604;2023-02-03T10:27:31;7.80;99.90
4052;DHT22;2040;50.924;11.604;2023-02-03T10:30:18;7.80;99.90
4052;DHT22;2040;50.924;11.604;2023-02-03T10:32:44;7.80;99.90
4052;DHT22;2040;50.924;11.604;2023-02-03T10:35:11;7.80;99.90
4052;DHT22;2040;50.924;11.604;2023-02-03T10:37:57;7.80;99.90
4052;DHT22;2040;50.924;11.604;2023-02-03T10:40:25;7.80;99.90
4052;DHT22;2040;50.924;11.604;2023-02-03T10:42:51;7.80;99.90
4052;DHT22;2040;50.924;11.604;2023-02-03T10:45:37;7.80;99.90
4052;DHT22;2040;50.924;11.604;2023-02-03T10:48:04;7.80;99.90
4052;DHT22;2040;50.924;11.604;2023-02-03T10:50:31;7.80;99.90
4052;DHT22;2040;50.924;11.604;2023-02-03T10:55:49;7.80;99.90
4052;DHT22;2040;50.924;11.604;2023-02-03T10:58:24;7.80;99.90
4052;DHT22;2040;50.924;11.604;2023-02-03T11:01:11;7.80;99.90
4052;DHT22;2040;50.924;11.604;2023-02-03T11:03:41;7.80;99.90
4052;DHT22;2040;50.924;11.604;2023-02-03T11:06:16;7.70;99.90
4052;DHT22;2040;50.924;11.604;2023-02-03T11:08:44;7.60;99.90
4052;DHT22;2040;50.924;11.604;2023-02-03T11:11:27;7.60;99.90
4052;DHT22;2040;50.924;11.604;2023-02-03T11:16:19;7.50;99.90
4052;DHT22;2040;50.924;11.604;2023-02-03T11:21:49;7.50;99.90
4052;DHT22;2040;50.924;11.604;2023-02-03T11:27:08;7.50;99.90
4052;DHT22;2040;50.924;11.604;2023-02-03T11:29:33;7.50;99.90
4052;DHT22;2040;50.924;11.604;2023-02-03T11:32:02;7.50;99.90
4052;DHT22;2040;50.924;11.604;2023-02-03T11:34:31;7.50;99.90
4052;DHT22;2040;50.924;11.604;2023-02-03T11:37:31;7.60;99.90
4052;DHT22;2040;50.924;11.604;2023-02-03T11:40:11;7.60;99.90
4052;DHT22;2040;50.924;11.604;2023-02-03T11:42:38;7.60;99.90
4052;DHT22;2040;50.924;11.604;2023-02-03T11:45:24;7.60;99.90
4052;DHT22;2040;50.924;11.604;2023-02-03T11:50:28;7.60;99.90
4052;DHT22;2040;50.924;11.604;2023-02-03T11:53:04;7.60;99.90
4052;DHT22;2040;50.924;11.604;2023-02-03T11:58:55;7.50;99.90
4052;DHT22;2040;50.924;11.604;2023-02-03T12:01:53;7.50;99.90
4052;DHT22;2040;50.924;11.604;2023-02-03T12:07:41;7.60;99.90
4052;DHT22;2040;50.924;11.604;2023-02-03T12:10:38;7.60;99.90
4052;DHT22;2040;50.924;11.604;2023-02-03T12:19:08;7.40;99.90
4052;DHT22;2040;50.924;11.604;2023-02-03T12:21:55;7.30;99.90
4052;DHT22;2040;50.924;11.604;2023-02-03T12:27:19;7.30;99.90
4052;DHT22;2040;50.924;11.604;2023-02-03T12:29:53;7.30;99.90
4052;DHT22;2040;50.924;11.604;2023-02-03T12:33:05;7.20;99.90
4052;DHT22;2040;50.924;11.604;2023-02-03T12:35:31;7.30;99.90
4052;DHT22;2040;50.924;11.604;2023-02-03T12:41:00;7.20;99.90
4052;DHT22;2040;50.924;11.604;2023-02-03T12:43:45;7.20;99.90
4052;DHT22;2040;50.924;11.604;2023-02-03T12:46:20;7.20;99.90
4052;DHT22;2040;50.924;11.604;2023-02-03T12:51:44;7.10;99.90
4052;DHT22;2040;50.924;11.604;2023-02-03T12:57:06;7.20;99.90
4052;DHT22;2040;50.924;11.604;2023-02-03T12:59:38;7.20;99.90
4052;DHT22;2040;50.924;11.604;2023-02-03T13:02:17;7.20;99.90
4052;DHT22;2040;50.924;11.604;2023-02-03T13:04:52;7.20;99.90
4052;DHT22;2040;50.924;11.604;2023-02-03T13:09:59;7.30;99.90
4052;DHT22;2040;50.924;11.604;2023-02-03T13:12:46;7.30;99.90
4052;DHT22;2040;50.924;11.604;2023-02-03T13:17:54;7.30;99.90
4052;DHT22;2040;50.924;11.604;2023-02-03T13:20:23;7.40;99.90
4052;DHT22;2040;50.924;11.604;2023-02-03T13:22:50;7.40;99.90
4052;DHT22;2040;50.924;11.604;2023-02-03T13:28:09;7.30;99.90
4052;DHT22;2040;50.924;11.604;2023-02-03T13:43:01;7.30;99.90
4052;DHT22;2040;50.924;11.604;2023-02-03T13:45:26;7.20;99.90
4052;DHT22;2040;50.924;11.604;2023-02-03T13:47:57;7.10;99.90
4052;DHT22;2040;50.924;11.604;2023-02-03T13:50:28;7.10;99.90
4052;DHT22;2040;50.924;11.604;2023-02-03T13:52:56;7.10;99.90
4052;DHT22;2040;50.924;11.604;2023-02-03T13:55:39;7.10;99.90
4052;DHT22;2040;50.924;11.604;2023-02-03T13:58:17;7.10;99.90
4052;DHT22;2040;50.924;11.604;2023-02-03T14:03:17;7.20;99.90
4052;DHT22;2040;50.924;11.604;2023-02-03T14:05:47;7.20;99.90
4052;DHT22;2040;50.924;11.604;2023-02-03T14:16:40;7.20;99.90
4052;DHT22;2040;50.924;11.604;2023-02-03T14:19:11;7.40;99.90
4052;DHT22;2040;50.924;11.604;2023-02-03T14:21:43;7.40;99.90
4052;DHT22;2040;50.924;11.604;2023-02-03T14:24:11;7.50;99.90
4052;DHT22;2040;50.924;11.604;2023-02-03T14:26:43;7.70;99.90
4052;DHT22;2040;50.924;11.604;2023-02-03T14:31:57;7.50;99.90
4052;DHT22;2040;50.924;11.604;2023-02-03T14:34:40;7.40;99.90
4052;DHT22;2040;50.924;11.604;2023-02-03T14:37:19;7.40;99.90
4052;DHT22;2040;50.924;11.604;2023-02-03T14:48:43;7.30;99.90
4052;DHT22;2040;50.924;11.604;2023-02-03T14:54:32;7.20;99.90
4052;DHT22;2040;50.924;11.604;2023-02-03T15:08:02;7.20;99.90
4052;DHT22;2040;50.924;11.604;2023-02-03T15:10:42;7.20;99.90
4052;DHT22;2040;50.924;11.604;2023-02-03T15:13:29;7.10;99.90
4052;DHT22;2040;50.924;11.604;2023-02-03T15:16:00;7.10;99.90
4052;DHT22;2040;50.924;11.604;2023-02-03T15:18:35;7.00;99.90
4052;DHT22;2040;50.924;11.604;2023-02-03T15:21:02;7.00;99.90
4052;DHT22;2040;50.924;11.604;2023-02-03T15:23:35;7.00;99.90
4052;DHT22;2040;50.924;11.604;2023-02-03T15:26:13;6.90;99.90
4052;DHT22;2040;50.924;11.604;2023-02-03T15:28:39;6.90;99.90
4052;DHT22;2040;50.924;11.604;2023-02-03T15:31:18;6.80;99.90
4052;DHT22;2040;50.924;11.604;2023-02-03T15:33:46;6.80;99.90
4052;DHT22;2040;50.924;11.604;2023-02-03T15:36:36;6.80;99.90
4052;DHT22;2040;50.924;11.604;2023-02-03T15:39:57;6.80;99.90
4052;DHT22;2040;50.924;11.604;2023-02-03T15:45:06;6.70;99.90
4052;DHT22;2040;50.924;11.604;2023-02-03T15:47:40;6.70;99.90
4052;DHT22;2040;50.924;11.604;2023-02-03T15:50:36;6.70;99.90
4052;DHT22;2040;50.924;11.604;2023-02-03T15:53:23;6.60;99.90
4052;DHT22;2040;50.924;11.604;2023-02-03T15:55:54;6.50;99.90
4052;DHT22;2040;50.924;11.604;2023-02-03T15:58:26;6.50;99.90
4052;DHT22;2040;50.924;11.604;2023-02-03T16:00:55;6.40;99.90
4052;DHT22;2040;50.924;11.604;2023-02-03T16:03:32;6.40;99.90
4052;DHT22;2040;50.924;11.604;2023-02-03T16:08:44;6.30;99.90
4052;DHT22;2040;50.924;11.604;2023-02-03T16:11:22;6.40;99.90
4052;DHT22;2040;50.924;11.604;2023-02-03T16:13:48;6.40;99.90
4052;DHT22;2040;50.924;11.604;2023-02-03T16:16:21;6.50;99.90
4052;DHT22;2040;50.924;11.604;2023-02-03T16:18:55;6.50;99.90
4052;DHT22;2040;50.924;11.604;2023-02-03T16:21:28;6.70;99.90
4052;DHT22;2040;50.924;11.604;2023-02-03T16:23:55;6.70;99.90
4052;DHT22;2040;50.924;11.604;2023-02-03T16:26:25;6.70;99.90
4052;DHT22;2040;50.924;11.604;2023-02-03T16:29:11;6.60;99.90
4052;DHT22;2040;50.924;11.604;2023-02-03T16:31:56;6.70;99.90
4052;DHT22;2040;50.924;11.604;2023-02-03T16:34:41;6.70;99.90
4052;DHT22;2040;50.924;11.604;2023-02-03T16:37:28;6.60;99.90
4052;DHT22;2040;50.924;11.604;2023-02-03T16:40:21;6.80;99.90
4052;DHT22;2040;50.924;11.604;2023-02-03T16:43:12;6.80;99.90
4052;DHT22;2040;50.924;11.604;2023-02-03T16:45:57;6.70;99.90
4052;DHT22;2040;50.924;11.604;2023-02-03T16:48:42;6.80;99.90
4052;DHT22;2040;50.924;11.604;2023-02-03T16:51:48;6.70;99.90
4052;DHT22;2040;50.924;11.604;2023-02-03T16:54:13;6.70;99.90
4052;DHT22;2040;50.924;11.604;2023-02-03T16:56:40;6.70;99.90
4052;DHT22;2040;50.924;11.604;2023-02-03T16:59:05;6.70;99.90
4052;DHT22;2040;50.924;11.604;2023-02-03T17:01:31;6.70;99.90
4052;DHT22;2040;50.924;11.604;2023-02-03T17:03:56;6.60;99.90
4052;DHT22;2040;50.924;11.604;2023-02-03T17:06:22;6.50;99.90
4052;DHT22;2040;50.924;11.604;2023-02-03T17:08:48;6.40;99.90
4052;DHT22;2040;50.924;11.604;2023-02-03T17:11:19;6.40;99.90
4052;DHT22;2040;50.924;11.604;2023-02-03T17:13:45;6.30;99.90
4052;DHT22;2040;50.924;11.604;2023-02-03T17:16:14;6.30;99.90
4052;DHT22;2040;50.924;11.604;2023-02-03T17:18:41;6.30;99.90
4052;DHT22;2040;50.924;11.604;2023-02-03T17:21:09;6.30;99.90
4052;DHT22;2040;50.924;11.604;2023-02-03T17:23:35;6.40;99.90
4052;DHT22;2040;50.924;11.604;2023-02-03T17:26:01;6.40;99.90
4052;DHT22;2040;50.924;11.604;2023-02-03T17:28:26;6.40;99.90
4052;DHT22;2040;50.924;11.604;2023-02-03T17:31:00;6.50;99.90
4052;DHT22;2040;50.924;11.604;2023-02-03T17:33:27;6.40;99.90
4052;DHT22;2040;50.924;11.604;2023-02-03T17:36:04;6.40;99.90
4052;DHT22;2040;50.924;11.604;2023-02-03T17:38:36;6.40;99.90
4052;DHT22;2040;50.924;11.604;2023-02-03T17:41:09;6.30;99.90
4052;DHT22;2040;50.924;11.604;2023-02-03T17:43:35;6.30;99.90
4052;DHT22;2040;50.924;11.604;2023-02-03T17:46:01;6.30;99.90
4052;DHT22;2040;50.924;11.604;2023-02-03T17:48:26;6.40;99.90
4052;DHT22;2040;50.924;11.604;2023-02-03T17:50:52;6.30;99.90
4052;DHT22;2040;50.924;11.604;2023-02-03T17:53:17;6.30;99.90
4052;DHT22;2040;50.924;11.604;2023-02-03T17:55:43;6.30;99.90
4052;DHT22;2040;50.924;11.604;2023-02-03T17:58:08;6.20;99.90
4052;DHT22;2040;50.924;11.604;2023-02-03T18:00:34;6.40;99.90
4052;DHT22;2040;50.924;11.604;2023-02-03T18:02:59;6.40;99.90
4052;DHT22;2040;50.924;11.604;2023-02-03T18:05:25;6.50;99.90
4052;DHT22;2040;50.924;11.604;2023-02-03T18:07:51;6.50;99.90
4052;DHT22;2040;50.924;11.604;2023-02-03T18:10:17;6.40;99.90
4052;DHT22;2040;50.924;11.604;2023-02-03T18:12:42;6.40;99.90
4052;DHT22;2040;50.924;11.604;2023-02-03T18:15:08;6.30;99.90
4052;DHT22;2040;50.924;11.604;2023-02-03T18:17:34;6.30;99.90
4052;DHT22;2040;50.924;11.604;2023-02-03T18:19:59;6.50;99.90
4052;DHT22;2040;50.924;11.604;2023-02-03T18:22:25;6.50;99.90
4052;DHT22;2040;50.924;11.604;2023-02-03T18:24:51;6.40;99.90
4052;DHT22;2040;50.924;11.604;2023-02-03T18:27:17;6.40;99.90
4052;DHT22;2040;50.924;11.604;2023-02-03T18:29:44;6.40;99.90
4052;DHT22;2040;50.924;11.604;2023-02-03T18:32:10;6.40;99.90
4052;DHT22;2040;50.924;11.604;2023-02-03T18:34:36;6.40;99.90
4052;DHT22;2040;50.924;11.604;2023-02-03T18:37:01;6.30;99.90